sensor_id;sensor_type;location;lat;lon;timestamp;pressure;altitude;pressure_sealevel;temperature;humidity
61682;BME280;47577;43.610;25.010;2023-03-21T00:01:27;100366.00;;;9.35;76.07
61682;BME280;47577;43.610;25.010;2023-03-21T00:03:52;100367.91;;;9.30;76.54
61682;BME280;47577;43.610;25.010;2023-03-21T00:06:18;100366.84;;;9.36;75.88
61682;BME280;47577;43.610;25.010;2023-03-21T00:08:44;100358.28;;;9.26;75.75
61682;BME280;47577;43.610;25.010;2023-03-21T00:11:10;100354.97;;;9.19;77.03
61682;BME280;47577;43.610;25.010;2023-03-21T00:13:36;100349.47;;;9.25;78.12
61682;BME280;47577;43.610;25.010;2023-03-21T00:18:34;100343.34;;;9.53;75.46
61682;BME280;47577;43.610;25.010;2023-03-21T00:21:06;100353.66;;;9.64;75.09
61682;BME280;47577;43.610;25.010;2023-03-21T00:23:32;100350.06;;;9.65;75.30
61682;BME280;47577;43.610;25.010;2023-03-21T00:25:58;100345.06;;;9.56;77.21
61682;BME280;47577;43.610;25.010;2023-03-21T00:28:24;100344.69;;;9.38;77.86
61682;BME280;47577;43.610;25.010;2023-03-21T00:30:49;100343.13;;;9.61;75.99
61682;BME280;47577;43.610;25.010;2023-03-21T00:33:16;100336.50;;;9.74;75.49
61682;BME280;47577;43.610;25.010;2023-03-21T00:35:46;100344.59;;;9.69;77.53
61682;BME280;47577;43.610;25.010;2023-03-21T00:38:14;100343.25;;;9.84;75.40
61682;BME280;47577;43.610;25.010;2023-03-21T00:40:40;100341.25;;;9.91;74.94
61682;BME280;47577;43.610;25.010;2023-03-21T00:43:05;100343.66;;;9.72;74.73
61682;BME280;47577;43.610;25.010;2023-03-21T00:45:31;100345.50;;;9.68;75.79
61682;BME280;47577;43.610;25.010;2023-03-21T00:47:57;100336.94;;;9.88;75.03
61682;BME280;47577;43.610;25.010;2023-03-21T00:50:23;100334.84;;;9.98;74.90
61682;BME280;47577;43.610;25.010;2023-03-21T00:52:48;100338.56;;;9.93;74.68
61682;BME280;47577;43.610;25.010;2023-03-21T00:55:15;100341.97;;;9.98;73.58
61682;BME280;47577;43.610;25.010;2023-03-21T00:57:41;100329.13;;;10.11;73.98
61682;BME280;47577;43.610;25.010;2023-03-21T01:00:08;100337.81;;;9.89;74.29
61682;BME280;47577;43.610;25.010;2023-03-21T01:02:35;100337.75;;;9.91;75.02
61682;BME280;47577;43.610;25.010;2023-03-21T01:05:02;100320.91;;;9.92;73.91
61682;BME280;47577;43.610;25.010;2023-03-21T01:07:28;100320.59;;;10.01;74.49
61682;BME280;47577;43.610;25.010;2023-03-21T01:09:53;100327.22;;;9.87;74.86
61682;BME280;47577;43.610;25.010;2023-03-21T01:12:19;100327.38;;;9.83;74.38
61682;BME280;47577;43.610;25.010;2023-03-21T01:14:44;100324.00;;;9.78;75.76
61682;BME280;47577;43.610;25.010;2023-03-21T01:17:10;100317.09;;;9.72;75.13
61682;BME280;47577;43.610;25.010;2023-03-21T01:19:35;100320.00;;;9.64;75.23
61682;BME280;47577;43.610;25.010;2023-03-21T01:22:01;100320.75;;;9.68;75.35
61682;BME280;47577;43.610;25.010;2023-03-21T01:24:26;100313.69;;;9.67;76.31
61682;BME280;47577;43.610;25.010;2023-03-21T01:26:52;100315.53;;;9.65;76.27
61682;BME280;47577;43.610;25.010;2023-03-21T01:29:17;100303.84;;;9.42;77.39
61682;BME280;47577;43.610;25.010;2023-03-21T01:31:43;100310.00;;;9.44;77.54
61682;BME280;47577;43.610;25.010;2023-03-21T01:34:08;100301.88;;;9.49;77.47
61682;BME280;47577;43.610;25.010;2023-03-21T01:36:33;100311.41;;;9.56;77.54
61682;BME280;47577;43.610;25.010;2023-03-21T01:38:59;100306.03;;;9.58;75.93
61682;BME280;47577;43.610;25.010;2023-03-21T01:43:50;100305.94;;;9.61;75.35
61682;BME280;47577;43.610;25.010;2023-03-21T01:46:21;100297.16;;;9.59;75.27
61682;BME280;47577;43.610;25.010;2023-03-21T01:48:51;100296.19;;;9.61;75.65
61682;BME280;47577;43.610;25.010;2023-03-21T01:51:17;100291.84;;;9.30;77.30
61682;BME280;47577;43.610;25.010;2023-03-21T01:53:43;100290.63;;;9.41;77.26
61682;BME280;47577;43.610;25.010;2023-03-21T01:56:10;100290.13;;;9.28;76.61
61682;BME280;47577;43.610;25.010;2023-03-21T01:58:36;100291.59;;;9.38;77.63
61682;BME280;47577;43.610;25.010;2023-03-21T02:01:02;100290.63;;;9.41;76.42
61682;BME280;47577;43.610;25.010;2023-03-21T02:03:30;100298.53;;;9.42;76.45
61682;BME280;47577;43.610;25.010;2023-03-21T02:06:06;100288.28;;;9.31;77.29
61682;BME280;47577;43.610;25.010;2023-03-21T02:08:33;100293.81;;;9.24;77.53
61682;BME280;47577;43.610;25.010;2023-03-21T02:10:59;100294.94;;;9.15;77.47
61682;BME280;47577;43.610;25.010;2023-03-21T02:13:25;100293.97;;;9.18;77.52
61682;BME280;47577;43.610;25.010;2023-03-21T02:16:01;100294.78;;;9.20;78.10
61682;BME280;47577;43.610;25.010;2023-03-21T02:32:06;100299.19;;;9.21;76.95
61682;BME280;47577;43.610;25.010;2023-03-21T02:37:22;100302.41;;;9.02;77.13
61682;BME280;47577;43.610;25.010;2023-03-21T02:45:22;100316.56;;;9.01;76.92
61682;BME280;47577;43.610;25.010;2023-03-21T02:47:52;100315.97;;;9.21;75.78
61682;BME280;47577;43.610;25.010;2023-03-21T02:50:21;100320.97;;;9.32;77.51
61682;BME280;47577;43.610;25.010;2023-03-21T02:52:48;100321.63;;;9.40;77.19
61682;BME280;47577;43.610;25.010;2023-03-21T02:55:19;100324.94;;;9.47;77.21
61682;BME280;47577;43.610;25.010;2023-03-21T02:57:47;100322.25;;;9.48;75.78
61682;BME280;47577;43.610;25.010;2023-03-21T03:00:20;100324.19;;;9.43;76.44
61682;BME280;47577;43.610;25.010;2023-03-21T03:02:47;100321.75;;;9.36;74.40
61682;BME280;47577;43.610;25.010;2023-03-21T03:05:22;100322.13;;;9.53;76.10
61682;BME280;47577;43.610;25.010;2023-03-21T03:13:21;100317.28;;;9.66;75.81
61682;BME280;47577;43.610;25.010;2023-03-21T03:18:30;100319.13;;;9.64;75.65
61682;BME280;47577;43.610;25.010;2023-03-21T03:21:17;100321.75;;;9.65;74.71
61682;BME280;47577;43.610;25.010;2023-03-21T03:23:52;100313.69;;;9.67;75.26
61682;BME280;47577;43.610;25.010;2023-03-21T03:26:28;100311.84;;;9.70;74.31
61682;BME280;47577;43.610;25.010;2023-03-21T03:28:57;100315.41;;;9.69;74.20
61682;BME280;47577;43.610;25.010;2023-03-21T03:31:25;100321.09;;;9.57;74.56
61682;BME280;47577;43.610;25.010;2023-03-21T03:33:53;100321.53;;;9.43;75.95
61682;BME280;47577;43.610;25.010;2023-03-21T03:36:19;100322.88;;;9.28;76.51
61682;BME280;47577;43.610;25.010;2023-03-21T03:38:47;100327.28;;;9.28;76.58
61682;BME280;47577;43.610;25.010;2023-03-21T03:41:22;100324.53;;;9.31;76.99
61682;BME280;47577;43.610;25.010;2023-03-21T03:43:50;100331.72;;;9.27;77.14
61682;BME280;47577;43.610;25.010;2023-03-21T03:46:21;100327.22;;;9.29;76.83
61682;BME280;47577;43.610;25.010;2023-03-21T03:48:51;100320.06;;;9.33;76.42
61682;BME280;47577;43.610;25.010;2023-03-21T03:51:26;100321.78;;;9.34;77.16
61682;BME280;47577;43.610;25.010;2023-03-21T03:53:57;100321.97;;;9.28;76.38
61682;BME280;47577;43.610;25.010;2023-03-21T03:56:24;100315.22;;;9.18;76.92
61682;BME280;47577;43.610;25.010;2023-03-21T03:58:51;100314.59;;;9.08;76.50
61682;BME280;47577;43.610;25.010;2023-03-21T04:01:16;100320.16;;;8.99;77.49
61682;BME280;47577;43.610;25.010;2023-03-21T04:03:42;100321.72;;;8.74;79.02
61682;BME280;47577;43.610;25.010;2023-03-21T04:06:09;100325.06;;;8.81;77.59
61682;BME280;47577;43.610;25.010;2023-03-21T04:08:35;100321.06;;;8.99;78.78
61682;BME280;47577;43.610;25.010;2023-03-21T04:11:01;100315.47;;;9.08;77.43
61682;BME280;47577;43.610;25.010;2023-03-21T04:13:27;100316.06;;;9.18;76.11
61682;BME280;47577;43.610;25.010;2023-03-21T04:15:52;100309.09;;;9.15;76.66
61682;BME280;47577;43.610;25.010;2023-03-21T04:18:18;100305.88;;;9.04;76.89
61682;BME280;47577;43.610;25.010;2023-03-21T04:20:43;100317.38;;;9.03;75.85
61682;BME280;47577;43.610;25.010;2023-03-21T04:23:09;100314.03;;;8.96;75.94
61682;BME280;47577;43.610;25.010;2023-03-21T04:25:35;100318.16;;;8.75;76.88
61682;BME280;47577;43.610;25.010;2023-03-21T04:28:01;100320.19;;;8.66;77.05
61682;BME280;47577;43.610;25.010;2023-03-21T04:30:26;100322.94;;;8.63;76.98
61682;BME280;47577;43.610;25.010;2023-03-21T04:32:52;100322.97;;;8.61;78.05
61682;BME280;47577;43.610;25.010;2023-03-21T04:35:21;100337.13;;;8.60;78.21
61682;BME280;47577;43.610;25.010;2023-03-21T04:37:47;100334.75;;;8.51;77.77
61682;BME280;47577;43.610;25.010;2023-03-21T04:40:12;100339.53;;;8.35;78.75
61682;BME280;47577;43.610;25.010;2023-03-21T04:42:42;100343.75;;;8.42;77.81
61682;BME280;47577;43.610;25.010;2023-03-21T04:45:07;100347.38;;;8.39;77.16
61682;BME280;47577;43.610;25.010;2023-03-21T04:47:33;100347.50;;;8.33;77.50
61682;BME280;47577;43.610;25.010;2023-03-21T04:49:58;100345.16;;;8.21;77.82
61682;BME280;47577;43.610;25.010;2023-03-21T04:52:24;100346.25;;;8.14;79.54
61682;BME280;47577;43.610;25.010;2023-03-21T04:54:49;100348.00;;;8.15;79.65
61682;BME280;47577;43.610;25.010;2023-03-21T04:57:15;100345.38;;;8.13;78.57
61682;BME280;47577;43.610;25.010;2023-03-21T04:59:41;100350.63;;;8.15;78.67
61682;BME280;47577;43.610;25.010;2023-03-21T05:02:06;100352.28;;;8.19;79.83
61682;BME280;47577;43.610;25.010;2023-03-21T05:04:32;100349.53;;;8.23;79.55
61682;BME280;47577;43.610;25.010;2023-03-21T05:06:57;100349.50;;;8.25;79.10
61682;BME280;47577;43.610;25.010;2023-03-21T05:09:23;100349.78;;;8.13;79.27
61682;BME280;47577;43.610;25.010;2023-03-21T05:11:49;100355.91;;;8.16;78.96
61682;BME280;47577;43.610;25.010;2023-03-21T05:14:19;100364.81;;;8.12;79.41
61682;BME280;47577;43.610;25.010;2023-03-21T05:16:45;100350.41;;;8.22;79.59
61682;BME280;47577;43.610;25.010;2023-03-21T05:19:18;100353.47;;;8.43;79.75
61682;BME280;47577;43.610;25.010;2023-03-21T05:21:44;100350.34;;;8.62;78.37
61682;BME280;47577;43.610;25.010;2023-03-21T05:24:14;100350.81;;;8.77;77.50
61682;BME280;47577;43.610;25.010;2023-03-21T05:26:39;100346.94;;;8.91;78.69
61682;BME280;47577;43.610;25.010;2023-03-21T05:29:05;100348.47;;;8.98;77.49
61682;BME280;47577;43.610;25.010;2023-03-21T05:31:31;100345.63;;;9.06;77.41
61682;BME280;47577;43.610;25.010;2023-03-21T05:33:56;100356.78;;;9.17;78.34
61682;BME280;47577;43.610;25.010;2023-03-21T05:36:23;100357.44;;;9.25;77.21
61682;BME280;47577;43.610;25.010;2023-03-21T05:38:48;100354.44;;;9.36;76.21
61682;BME280;47577;43.610;25.010;2023-03-21T05:41:14;100346.19;;;9.47;75.96
61682;BME280;47577;43.610;25.010;2023-03-21T05:43:40;100345.31;;;9.46;75.35
61682;BME280;47577;43.610;25.010;2023-03-21T05:46:06;100349.38;;;9.58;74.69
61682;BME280;47577;43.610;25.010;2023-03-21T05:48:32;100350.00;;;9.66;74.46
61682;BME280;47577;43.610;25.010;2023-03-21T05:50:59;100353.09;;;9.81;74.62
61682;BME280;47577;43.610;25.010;2023-03-21T05:53:25;100358.09;;;9.92;74.07
61682;BME280;47577;43.610;25.010;2023-03-21T05:55:50;100356.78;;;10.05;73.60
61682;BME280;47577;43.610;25.010;2023-03-21T05:58:16;100353.72;;;10.17;73.25
61682;BME280;47577;43.610;25.010;2023-03-21T06:00:41;100359.56;;;10.29;72.69
61682;BME280;47577;43.610;25.010;2023-03-21T06:03:06;100368.88;;;10.42;72.44
61682;BME280;47577;43.610;25.010;2023-03-21T06:05:32;100367.63;;;10.52;72.66
61682;BME280;47577;43.610;25.010;2023-03-21T06:07:57;100365.53;;;10.62;72.03
61682;BME280;47577;43.610;25.010;2023-03-21T06:10:23;100371.34;;;10.73;72.10
61682;BME280;47577;43.610;25.010;2023-03-21T06:12:48;100362.41;;;10.76;71.35
61682;BME280;47577;43.610;25.010;2023-03-21T06:15:13;100376.63;;;10.75;71.24
61682;BME280;47577;43.610;25.010;2023-03-21T06:17:39;100370.28;;;10.79;70.09
61682;BME280;47577;43.610;25.010;2023-03-21T06:20:05;100373.38;;;10.92;70.78
61682;BME280;47577;43.610;25.010;2023-03-21T06:22:31;100373.06;;;11.00;70.71
61682;BME280;47577;43.610;25.010;2023-03-21T06:24:57;100362.91;;;11.11;71.07
61682;BME280;47577;43.610;25.010;2023-03-21T06:27:23;100360.19;;;11.12;71.67
61682;BME280;47577;43.610;25.010;2023-03-21T06:29:48;100347.59;;;11.18;71.81
61682;BME280;47577;43.610;25.010;2023-03-21T06:32:14;100353.53;;;11.26;71.86
61682;BME280;47577;43.610;25.010;2023-03-21T06:34:40;100357.97;;;11.25;72.18
61682;BME280;47577;43.610;25.010;2023-03-21T06:37:06;100351.50;;;11.32;72.15
61682;BME280;47577;43.610;25.010;2023-03-21T06:39:31;100356.72;;;11.36;72.58
61682;BME280;47577;43.610;25.010;2023-03-21T06:41:57;100365.44;;;11.39;71.99
61682;BME280;47577;43.610;25.010;2023-03-21T06:44:22;100360.06;;;11.41;72.51
61682;BME280;47577;43.610;25.010;2023-03-21T06:46:48;100367.94;;;11.44;72.34
61682;BME280;47577;43.610;25.010;2023-03-21T06:49:14;100355.25;;;11.50;71.92
61682;BME280;47577;43.610;25.010;2023-03-21T06:51:40;100355.94;;;11.56;71.74
61682;BME280;47577;43.610;25.010;2023-03-21T06:54:05;100355.03;;;11.57;71.17
61682;BME280;47577;43.610;25.010;2023-03-21T06:56:30;100353.22;;;11.57;71.37
61682;BME280;47577;43.610;25.010;2023-03-21T06:58:56;100355.88;;;11.57;71.22
61682;BME280;47577;43.610;25.010;2023-03-21T07:01:21;100354.25;;;11.53;71.10
61682;BME280;47577;43.610;25.010;2023-03-21T07:03:47;100347.81;;;11.59;70.88
61682;BME280;47577;43.610;25.010;2023-03-21T07:06:12;100342.09;;;11.69;72.42
61682;BME280;47577;43.610;25.010;2023-03-21T07:08:41;100345.25;;;11.79;72.90
61682;BME280;47577;43.610;25.010;2023-03-21T07:11:07;100349.34;;;11.88;72.88
61682;BME280;47577;43.610;25.010;2023-03-21T07:13:33;100348.06;;;11.98;72.04
61682;BME280;47577;43.610;25.010;2023-03-21T07:15:58;100348.75;;;12.03;71.67
61682;BME280;47577;43.610;25.010;2023-03-21T07:18:25;100347.44;;;12.14;71.57
61682;BME280;47577;43.610;25.010;2023-03-21T07:20:51;100357.09;;;12.16;71.08
61682;BME280;47577;43.610;25.010;2023-03-21T07:23:20;100351.72;;;12.18;70.50
61682;BME280;47577;43.610;25.010;2023-03-21T07:25:46;100357.03;;;12.18;70.09
61682;BME280;47577;43.610;25.010;2023-03-21T07:28:12;100355.88;;;12.25;69.19
61682;BME280;47577;43.610;25.010;2023-03-21T07:30:37;100349.88;;;12.20;69.58
61682;BME280;47577;43.610;25.010;2023-03-21T07:33:04;100357.94;;;12.18;70.40
61682;BME280;47577;43.610;25.010;2023-03-21T07:35:30;100352.19;;;12.28;70.79
61682;BME280;47577;43.610;25.010;2023-03-21T07:37:55;100353.75;;;12.33;69.40
61682;BME280;47577;43.610;25.010;2023-03-21T07:40:21;100354.16;;;12.44;69.10
61682;BME280;47577;43.610;25.010;2023-03-21T07:42:47;100352.84;;;12.55;69.11
61682;BME280;47577;43.610;25.010;2023-03-21T07:45:12;100355.31;;;12.59;68.70
61682;BME280;47577;43.610;25.010;2023-03-21T07:47:45;100350.13;;;12.77;69.15
61682;BME280;47577;43.610;25.010;2023-03-21T07:50:11;100347.19;;;12.83;68.67
61682;BME280;47577;43.610;25.010;2023-03-21T07:52:36;100354.75;;;12.92;68.57
61682;BME280;47577;43.610;25.010;2023-03-21T07:55:02;100337.75;;;12.95;70.42
61682;BME280;47577;43.610;25.010;2023-03-21T07:57:27;100352.28;;;13.08;68.33
61682;BME280;47577;43.610;25.010;2023-03-21T07:59:53;100354.56;;;13.17;68.05
61682;BME280;47577;43.610;25.010;2023-03-21T08:02:18;100363.06;;;13.26;67.51
61682;BME280;47577;43.610;25.010;2023-03-21T08:04:43;100356.22;;;13.20;68.35
61682;BME280;47577;43.610;25.010;2023-03-21T08:07:09;100360.25;;;13.29;68.37
61682;BME280;47577;43.610;25.010;2023-03-21T08:09:35;100362.69;;;13.35;66.91
61682;BME280;47577;43.610;25.010;2023-03-21T08:12:01;100366.81;;;13.42;67.29
61682;BME280;47577;43.610;25.010;2023-03-21T08:14:27;100363.78;;;13.50;66.94
61682;BME280;47577;43.610;25.010;2023-03-21T08:16:52;100374.47;;;13.69;68.08
61682;BME280;47577;43.610;25.010;2023-03-21T08:19:17;100375.56;;;13.84;66.18
61682;BME280;47577;43.610;25.010;2023-03-21T08:21:48;100376.84;;;13.94;65.86
61682;BME280;47577;43.610;25.010;2023-03-21T08:24:15;100383.16;;;14.11;66.71
61682;BME280;47577;43.610;25.010;2023-03-21T08:26:41;100379.03;;;14.22;64.59
61682;BME280;47577;43.610;25.010;2023-03-21T08:29:08;100359.78;;;14.33;63.22
61682;BME280;47577;43.610;25.010;2023-03-21T08:31:34;100366.78;;;14.36;61.08
61682;BME280;47577;43.610;25.010;2023-03-21T08:33:59;100365.03;;;14.35;59.86
61682;BME280;47577;43.610;25.010;2023-03-21T08:36:25;100365.44;;;14.44;60.95
61682;BME280;47577;43.610;25.010;2023-03-21T08:38:51;100361.47;;;14.53;61.63
61682;BME280;47577;43.610;25.010;2023-03-21T08:41:21;100361.88;;;14.63;62.12
61682;BME280;47577;43.610;25.010;2023-03-21T08:43:48;100360.00;;;14.65;60.16
61682;BME280;47577;43.610;25.010;2023-03-21T08:46:13;100368.03;;;14.65;60.87
61682;BME280;47577;43.610;25.010;2023-03-21T08:48:39;100366.59;;;14.75;59.95
61682;BME280;47577;43.610;25.010;2023-03-21T08:51:05;100365.72;;;14.75;60.50
61682;BME280;47577;43.610;25.010;2023-03-21T08:53:31;100380.69;;;14.79;59.42
61682;BME280;47577;43.610;25.010;2023-03-21T08:55:56;100369.66;;;14.85;58.16
61682;BME280;47577;43.610;25.010;2023-03-21T08:58:22;100366.44;;;14.78;57.58
61682;BME280;47577;43.610;25.010;2023-03-21T09:00:48;100369.56;;;14.87;57.92
61682;BME280;47577;43.610;25.010;2023-03-21T09:03:13;100371.47;;;14.85;56.45
61682;BME280;47577;43.610;25.010;2023-03-21T09:05:39;100369.03;;;14.97;56.52
61682;BME280;47577;43.610;25.010;2023-03-21T09:08:04;100375.00;;;15.03;55.69
61682;BME280;47577;43.610;25.010;2023-03-21T09:10:30;100372.53;;;15.15;55.97
61682;BME280;47577;43.610;25.010;2023-03-21T09:12:56;100373.16;;;15.21;56.32
61682;BME280;47577;43.610;25.010;2023-03-21T09:15:23;100367.63;;;15.24;55.74
61682;BME280;47577;43.610;25.010;2023-03-21T09:17:49;100364.19;;;15.22;57.26
61682;BME280;47577;43.610;25.010;2023-03-21T09:20:17;100362.19;;;15.25;56.53
61682;BME280;47577;43.610;25.010;2023-03-21T09:22:49;100363.16;;;15.24;56.56
61682;BME280;47577;43.610;25.010;2023-03-21T09:25:16;100363.13;;;15.08;57.47
61682;BME280;47577;43.610;25.010;2023-03-21T09:27:42;100369.25;;;15.10;57.88
61682;BME280;47577;43.610;25.010;2023-03-21T09:30:12;100364.13;;;15.06;57.44
61682;BME280;47577;43.610;25.010;2023-03-21T09:32:38;100358.63;;;14.91;56.81
61682;BME280;47577;43.610;25.010;2023-03-21T09:35:04;100358.72;;;14.90;54.77
61682;BME280;47577;43.610;25.010;2023-03-21T09:37:31;100355.19;;;14.89;57.15
61682;BME280;47577;43.610;25.010;2023-03-21T09:39:59;100352.41;;;14.91;57.53
61682;BME280;47577;43.610;25.010;2023-03-21T09:42:37;100349.13;;;14.86;58.74
61682;BME280;47577;43.610;25.010;2023-03-21T09:45:28;100356.03;;;14.90;61.47
61682;BME280;47577;43.610;25.010;2023-03-21T09:47:51;100348.09;;;14.88;60.66
61682;BME280;47577;43.610;25.010;2023-03-21T09:50:19;100343.78;;;14.86;61.57
61682;BME280;47577;43.610;25.010;2023-03-21T09:52:50;100339.44;;;14.83;60.02
61682;BME280;47577;43.610;25.010;2023-03-21T09:55:19;100340.63;;;14.77;60.67
61682;BME280;47577;43.610;25.010;2023-03-21T09:57:47;100346.91;;;14.76;60.48
61682;BME280;47577;43.610;25.010;2023-03-21T10:00:16;100339.75;;;14.77;61.17
61682;BME280;47577;43.610;25.010;2023-03-21T10:02:48;100340.56;;;14.79;60.04
61682;BME280;47577;43.610;25.010;2023-03-21T10:05:23;100347.16;;;14.72;58.48
61682;BME280;47577;43.610;25.010;2023-03-21T10:10:24;100337.16;;;14.75;59.59
61682;BME280;47577;43.610;25.010;2023-03-21T10:12:51;100337.50;;;14.69;57.67
61682;BME280;47577;43.610;25.010;2023-03-21T10:15:18;100328.28;;;14.75;58.61
61682;BME280;47577;43.610;25.010;2023-03-21T10:17:48;100326.59;;;14.72;59.99
61682;BME280;47577;43.610;25.010;2023-03-21T10:22:43;100314.50;;;14.83;59.73
61682;BME280;47577;43.610;25.010;2023-03-21T10:25:12;100314.56;;;14.81;61.47
61682;BME280;47577;43.610;25.010;2023-03-21T10:27:39;100299.44;;;14.80;62.77
61682;BME280;47577;43.610;25.010;2023-03-21T10:30:06;100304.72;;;14.81;63.03
61682;BME280;47577;43.610;25.010;2023-03-21T10:32:34;100304.19;;;14.75;63.19
61682;BME280;47577;43.610;25.010;2023-03-21T10:35:00;100310.16;;;14.80;62.13
61682;BME280;47577;43.610;25.010;2023-03-21T10:37:29;100310.84;;;14.84;59.93
61682;BME280;47577;43.610;25.010;2023-03-21T10:39:56;100308.34;;;14.80;59.51
61682;BME280;47577;43.610;25.010;2023-03-21T10:42:23;100307.00;;;14.89;61.37
61682;BME280;47577;43.610;25.010;2023-03-21T10:44:49;100296.03;;;14.94;61.82
61682;BME280;47577;43.610;25.010;2023-03-21T10:47:21;100297.34;;;15.03;62.47
61682;BME280;47577;43.610;25.010;2023-03-21T10:49:46;100298.13;;;15.05;60.70
61682;BME280;47577;43.610;25.010;2023-03-21T10:52:13;100299.88;;;15.06;60.67
61682;BME280;47577;43.610;25.010;2023-03-21T10:54:40;100293.25;;;15.13;59.98
61682;BME280;47577;43.610;25.010;2023-03-21T10:57:39;100279.41;;;15.21;60.07
61682;BME280;47577;43.610;25.010;2023-03-21T10:59:58;100276.41;;;15.43;59.45
61682;BME280;47577;43.610;25.010;2023-03-21T11:02:36;100272.34;;;15.51;57.90
61682;BME280;47577;43.610;25.010;2023-03-21T11:07:47;100282.13;;;15.68;57.46
61682;BME280;47577;43.610;25.010;2023-03-21T11:10:25;100282.72;;;15.73;58.50
61682;BME280;47577;43.610;25.010;2023-03-21T11:12:53;100280.59;;;15.80;59.26
61682;BME280;47577;43.610;25.010;2023-03-21T11:15:39;100283.59;;;15.90;57.00
61682;BME280;47577;43.610;25.010;2023-03-21T11:18:17;100281.59;;;15.94;58.89
61682;BME280;47577;43.610;25.010;2023-03-21T11:20:47;100278.81;;;16.11;57.84
61682;BME280;47577;43.610;25.010;2023-03-21T11:23:13;100274.97;;;16.31;57.11
61682;BME280;47577;43.610;25.010;2023-03-21T11:25:40;100266.88;;;16.17;54.13
61682;BME280;47577;43.610;25.010;2023-03-21T11:28:08;100257.78;;;16.03;55.29
61682;BME280;47577;43.610;25.010;2023-03-21T11:30:37;100263.53;;;15.97;55.71
61682;BME280;47577;43.610;25.010;2023-03-21T11:33:13;100242.00;;;16.13;55.64
61682;BME280;47577;43.610;25.010;2023-03-21T11:35:38;100248.66;;;16.22;54.92
61682;BME280;47577;43.610;25.010;2023-03-21T11:38:05;100246.97;;;16.35;53.42
61682;BME280;47577;43.610;25.010;2023-03-21T11:40:32;100251.38;;;16.36;54.50
61682;BME280;47577;43.610;25.010;2023-03-21T11:42:58;100246.25;;;16.48;54.24
61682;BME280;47577;43.610;25.010;2023-03-21T11:45:32;100252.75;;;15.83;52.45
61682;BME280;47577;43.610;25.010;2023-03-21T11:47:59;100248.41;;;16.26;54.00
61682;BME280;47577;43.610;25.010;2023-03-21T11:50:34;100248.13;;;16.45;53.09
61682;BME280;47577;43.610;25.010;2023-03-21T11:58:18;100245.72;;;16.86;51.39
61682;BME280;47577;43.610;25.010;2023-03-21T12:05:53;100239.31;;;16.88;51.53
61682;BME280;47577;43.610;25.010;2023-03-21T12:08:29;100240.41;;;16.84;53.35
61682;BME280;47577;43.610;25.010;2023-03-21T12:11:10;100233.22;;;16.99;52.32
61682;BME280;47577;43.610;25.010;2023-03-21T12:13:46;100222.19;;;17.04;53.16
61682;BME280;47577;43.610;25.010;2023-03-21T12:16:23;100224.22;;;17.00;51.22
61682;BME280;47577;43.610;25.010;2023-03-21T12:18:58;100214.25;;;17.02;50.46
61682;BME280;47577;43.610;25.010;2023-03-21T12:21:32;100221.34;;;17.03;50.92
61682;BME280;47577;43.610;25.010;2023-03-21T12:24:10;100221.25;;;17.05;51.05
61682;BME280;47577;43.610;25.010;2023-03-21T12:29:24;100209.84;;;17.01;52.09
61682;BME280;47577;43.610;25.010;2023-03-21T12:39:54;100207.94;;;16.89;52.06
61682;BME280;47577;43.610;25.010;2023-03-21T12:42:40;100210.34;;;16.93;51.64
61682;BME280;47577;43.610;25.010;2023-03-21T12:47:34;100201.53;;;16.91;52.35
61682;BME280;47577;43.610;25.010;2023-03-21T12:50:02;100191.41;;;16.80;51.68
61682;BME280;47577;43.610;25.010;2023-03-21T12:52:34;100188.38;;;16.87;52.02
61682;BME280;47577;43.610;25.010;2023-03-21T12:55:02;100186.66;;;16.86;52.43
61682;BME280;47577;43.610;25.010;2023-03-21T12:57:35;100187.41;;;16.88;53.13
61682;BME280;47577;43.610;25.010;2023-03-21T13:05:37;100178.88;;;16.95;51.49
61682;BME280;47577;43.610;25.010;2023-03-21T13:10:33;100179.31;;;17.02;52.33
61682;BME280;47577;43.610;25.010;2023-03-21T13:20:50;100175.50;;;17.06;51.98
61682;BME280;47577;43.610;25.010;2023-03-21T13:23:21;100173.09;;;17.02;51.64
61682;BME280;47577;43.610;25.010;2023-03-21T13:25:47;100173.75;;;17.05;52.83
61682;BME280;47577;43.610;25.010;2023-03-21T13:28:18;100179.78;;;17.09;52.83
61682;BME280;47577;43.610;25.010;2023-03-21T13:30:44;100176.06;;;17.11;53.18
61682;BME280;47577;43.610;25.010;2023-03-21T13:33:12;100175.09;;;17.12;51.71
61682;BME280;47577;43.610;25.010;2023-03-21T13:35:39;100165.59;;;17.07;51.26
61682;BME280;47577;43.610;25.010;2023-03-21T13:38:39;100167.28;;;16.95;52.89
61682;BME280;47577;43.610;25.010;2023-03-21T13:43:38;100168.19;;;17.08;52.50
61682;BME280;47577;43.610;25.010;2023-03-21T13:46:50;100163.56;;;17.10;52.60
61682;BME280;47577;43.610;25.010;2023-03-21T13:56:24;100156.78;;;17.05;53.09
61682;BME280;47577;43.610;25.010;2023-03-21T13:58:51;100150.06;;;17.12;53.58
61682;BME280;47577;43.610;25.010;2023-03-21T14:03:43;100150.94;;;17.12;53.49
61682;BME280;47577;43.610;25.010;2023-03-21T14:06:10;100148.25;;;17.12;53.50
61682;BME280;47577;43.610;25.010;2023-03-21T14:08:36;100153.34;;;17.03;54.38
61682;BME280;47577;43.610;25.010;2023-03-21T14:11:05;100148.19;;;16.85;55.25
61682;BME280;47577;43.610;25.010;2023-03-21T14:13:31;100150.31;;;16.94;55.15
61682;BME280;47577;43.610;25.010;2023-03-21T14:15:59;100147.81;;;16.91;55.88
61682;BME280;47577;43.610;25.010;2023-03-21T14:18:26;100149.81;;;16.88;54.73
61682;BME280;47577;43.610;25.010;2023-03-21T14:20:53;100146.16;;;16.74;56.20